Time;durP1;ratioP1;P1;durP2;ratioP2;P2;SDS_P1;SDS_P2;PMS_P1;PMS_P2;Temp;Humidity;BMP_temperature;BMP_pressure;BME280_temperature;BME280_humidity;BME280_pressure;Samples;Min_cycle;Max_cycle;Signal;HPM_P1;HPM_P2
2022/06/02 00:00:27;;;;;;;25.40;18.07;;;27.60;99.90;;;;;;1852735;77;21556;-77
2022/06/02 00:02:59;;;;;;;27.17;17.62;;;27.90;99.90;;;;;;1858157;77;21201;-78
2022/06/02 00:05:32;;;;;;;28.95;18.95;;;27.60;99.90;;;;;;1856024;77;21193;-80
2022/06/02 00:08:07;;;;;;;27.15;18.35;;;27.60;99.90;;;;;;1861799;75;21148;-80
2022/06/02 00:10:41;;;;;;;27.13;18.60;;;27.70;99.90;;;;;;1873100;75;21108;-76
2022/06/02 00:13:15;;;;;;;26.52;19.85;;;27.80;99.90;;;;;;1897432;75;21095;-78
2022/06/02 00:15:52;;;;;;;23.23;18.43;;;27.80;99.90;;;;;;1877228;75;21130;-77
2022/06/02 00:18:25;;;;;;;27.32;19.57;;;27.90;99.90;;;;;;1864363;75;21091;-79
2022/06/02 00:21:02;;;;;;;31.10;19.20;;;27.90;99.90;;;;;;1856781;75;21676;-77
2022/06/02 00:23:36;;;;;;;22.20;17.98;;;27.70;99.90;;;;;;1839986;78;21085;-78
2022/06/02 00:26:10;;;;;;;28.47;18.98;;;28.00;99.90;;;;;;1868079;75;21578;-80
2022/06/02 00:28:43;;;;;;;26.45;18.73;;;28.00;99.90;;;;;;1863406;77;21664;-77
2022/06/02 00:31:17;;;;;;;30.02;19.62;;;27.90;99.90;;;;;;1864285;77;21236;-77
2022/06/02 00:33:52;;;;;;;29.98;18.50;;;27.80;99.90;;;;;;1875417;75;21723;-80
2022/06/02 00:36:25;;;;;;;23.18;18.65;;;28.10;99.90;;;;;;1875780;75;21628;-76
2022/06/02 00:38:59;;;;;;;24.98;18.70;;;27.90;99.90;;;;;;1863377;75;21707;-77
2022/06/02 00:41:32;;;;;;;28.45;19.32;;;28.10;99.90;;;;;;1870023;75;21160;-75
2022/06/02 00:44:07;;;;;;;24.72;18.77;;;28.00;99.90;;;;;;1874975;75;21254;-75
2022/06/02 00:46:40;;;;;;;30.60;18.25;;;28.10;99.90;;;;;;1855965;77;21099;-76
2022/06/02 00:49:14;;;;;;;26.12;19.73;;;28.30;99.90;;;;;;1825160;78;21693;-77
2022/06/02 00:51:48;;;;;;;29.23;18.62;;;28.10;99.90;;;;;;1850680;77;21220;-79
2022/06/02 00:59:35;;;;;;;25.35;19.27;;;28.30;99.90;;;;;;1862063;75;21612;-79
2022/06/02 01:02:06;;;;;;;27.48;18.90;;;28.50;99.90;;;;;;1857499;77;21182;-86
2022/06/02 01:04:40;;;;;;;23.18;16.70;;;28.70;99.90;;;;;;1872130;77;21225;-87
2022/06/02 01:07:13;;;;;;;26.82;17.30;;;28.50;99.90;;;;;;1879396;75;21150;-86
2022/06/02 01:09:47;;;;;;;27.77;17.87;;;28.60;99.90;;;;;;1857335;75;21143;-87
2022/06/02 01:12:20;;;;;;;22.50;17.52;;;29.00;99.90;;;;;;1864076;76;21246;-87
2022/06/02 01:14:56;;;;;;;25.95;18.32;;;28.70;99.90;;;;;;1861630;76;21084;-86
2022/06/02 01:17:29;;;;;;;22.48;17.10;;;28.90;99.90;;;;;;1865794;75;21160;-85
2022/06/02 01:20:03;;;;;;;24.45;16.80;;;28.90;99.90;;;;;;1850558;77;21748;-86
2022/06/02 01:22:36;;;;;;;22.20;17.00;;;29.00;99.90;;;;;;1865146;75;21124;-84
2022/06/02 01:25:10;;;;;;;23.67;15.70;;;29.10;99.90;;;;;;1865417;76;21101;-86
2022/06/02 01:27:43;;;;;;;22.65;15.15;;;29.00;99.90;;;;;;1867097;76;21126;-87
2022/06/02 01:30:16;;;;;;;21.48;15.03;;;29.20;99.90;;;;;;1868201;75;21079;-85
2022/06/02 01:32:50;;;;;;;21.68;15.35;;;29.20;99.90;;;;;;1866600;75;21182;-85
2022/06/02 01:35:23;;;;;;;22.27;15.90;;;29.40;99.90;;;;;;1865492;75;21158;-88
2022/06/02 01:37:58;;;;;;;22.95;14.43;;;29.30;99.90;;;;;;1870251;75;21222;-86
2022/06/02 01:40:31;;;;;;;20.50;13.83;;;29.30;99.90;;;;;;1862210;75;21256;-86
2022/06/02 01:43:05;;;;;;;25.88;14.40;;;29.30;99.90;;;;;;1870929;75;21591;-88
2022/06/02 01:45:38;;;;;;;24.12;14.78;;;29.40;99.90;;;;;;1847634;77;21090;-87
2022/06/02 01:48:11;;;;;;;19.98;14.47;;;29.60;99.90;;;;;;1862693;75;21182;-85
2022/06/02 01:50:46;;;;;;;20.23;14.30;;;29.70;99.90;;;;;;1833943;75;21231;-86
2022/06/02 01:53:19;;;;;;;17.55;13.45;;;29.60;99.90;;;;;;1858996;76;21058;-86
2022/06/02 01:56:01;;;;;;;21.15;14.45;;;29.60;99.90;;;;;;1867563;75;21170;-85
2022/06/02 01:58:35;;;;;;;21.27;13.38;;;30.00;99.90;;;;;;1863146;75;21142;-87
2022/06/02 02:01:11;;;;;;;16.85;12.45;;;29.80;99.90;;;;;;1870144;75;21093;-88
2022/06/02 02:03:44;;;;;;;19.75;13.13;;;29.90;99.90;;;;;;1851312;75;21208;-85
2022/06/02 02:06:18;;;;;;;19.82;12.63;;;30.00;99.90;;;;;;1863215;75;21160;-87
2022/06/02 02:08:51;;;;;;;18.42;11.33;;;30.10;99.90;;;;;;1853519;76;21219;-88
2022/06/02 02:11:24;;;;;;;14.03;10.08;;;30.20;99.90;;;;;;1815516;77;21207;-88
2022/06/02 02:13:58;;;;;;;16.45;10.10;;;30.20;99.90;;;;;;1809564;79;21200;-86
2022/06/02 02:16:31;;;;;;;20.17;9.95;;;30.40;99.90;;;;;;1831153;77;21165;-86
2022/06/02 02:19:08;;;;;;;15.98;10.72;;;30.50;99.90;;;;;;1843688;76;21164;-84
2022/06/02 02:21:41;;;;;;;18.52;11.05;;;30.50;99.90;;;;;;1826675;77;21158;-85
2022/06/02 02:24:14;;;;;;;14.13;11.20;;;30.60;99.90;;;;;;1821068;78;21170;-86
2022/06/02 02:26:48;;;;;;;15.15;9.48;;;30.70;99.90;;;;;;1819879;77;21242;-83
2022/06/02 02:29:21;;;;;;;17.23;10.82;;;30.80;99.90;;;;;;1838220;77;21159;-85
2022/06/02 02:31:55;;;;;;;16.52;9.75;;;30.80;99.90;;;;;;1789474;79;21200;-83
2022/06/02 02:34:29;;;;;;;13.93;9.63;;;30.90;99.90;;;;;;1792007;79;21184;-83
2022/06/02 02:37:03;;;;;;;17.50;10.15;;;30.80;99.90;;;;;;1832161;77;21252;-84
2022/06/02 02:39:38;;;;;;;14.60;9.85;;;31.20;99.90;;;;;;1806809;78;21165;-84
2022/06/02 02:42:11;;;;;;;17.95;10.25;;;31.30;99.90;;;;;;1821295;77;21209;-89
2022/06/02 02:44:46;;;;;;;12.53;8.98;;;31.10;99.90;;;;;;1839546;77;21173;-90
2022/06/02 02:47:19;;;;;;;17.37;8.88;;;31.50;99.90;;;;;;1793746;80;21243;-88
2022/06/02 02:49:53;;;;;;;16.95;9.68;;;31.40;99.90;;;;;;1791176;80;21245;-88
2022/06/02 02:52:26;;;;;;;16.00;10.10;;;31.30;99.90;;;;;;1826116;77;21448;-87
2022/06/02 02:54:59;;;;;;;12.58;8.75;;;31.70;99.90;;;;;;1866887;76;21255;-87
2022/06/02 02:57:33;;;;;;;14.45;9.90;;;31.50;99.90;;;;;;1819280;79;21179;-86
2022/06/02 03:00:06;;;;;;;14.23;9.18;;;31.90;99.90;;;;;;1829719;78;21217;-89
2022/06/02 03:02:40;;;;;;;17.10;9.35;;;32.00;99.90;;;;;;1860119;76;21424;-84
2022/06/02 03:05:13;;;;;;;14.43;9.35;;;31.80;99.90;;;;;;1833351;76;21384;-83
2022/06/02 03:07:49;;;;;;;17.00;9.15;;;32.20;99.90;;;;;;1839534;76;21166;-85
2022/06/02 03:10:25;;;;;;;15.95;9.88;;;31.90;99.90;;;;;;1841476;77;21107;-86
2022/06/02 03:13:04;;;;;;;15.95;8.48;;;32.00;99.90;;;;;;1852596;75;21269;-84
2022/06/02 03:15:37;;;;;;;20.50;8.73;;;32.40;99.90;;;;;;1862102;76;21491;-83
2022/06/02 03:18:11;;;;;;;17.48;9.48;;;32.10;99.90;;;;;;1838042;75;21107;-86
2022/06/02 03:20:46;;;;;;;14.68;9.25;;;32.30;99.90;;;;;;1875107;75;21167;-86
2022/06/02 03:23:40;;;;;;;14.35;9.13;;;32.60;99.90;;;;;;1864642;75;21475;-85
2022/06/02 03:26:16;;;;;;;16.93;9.75;;;32.60;99.90;;;;;;1870451;76;21125;-87
2022/06/02 03:28:58;;;;;;;14.10;8.83;;;;;;;;;;1894247;75;21229;-87
2022/06/02 03:31:31;;;;;;;15.48;8.38;;;32.80;99.90;;;;;;1904907;75;21123;-88
2022/06/02 03:34:06;;;;;;;14.95;8.95;;;32.80;99.90;;;;;;1883644;75;21604;-86
2022/06/02 03:36:42;;;;;;;15.85;7.70;;;32.50;99.90;;;;;;1842718;78;21139;-88
2022/06/02 03:39:16;;;;;;;15.08;7.80;;;33.00;99.90;;;;;;1894103;76;21122;-86
2022/06/02 03:41:49;;;;;;;12.58;8.38;;;32.70;99.90;;;;;;1875531;76;21142;-84
2022/06/02 03:44:23;;;;;;;16.90;7.67;;;32.80;99.90;;;;;;1857366;77;21152;-87
2022/06/02 03:47:00;;;;;;;13.98;7.97;;;32.90;99.90;;;;;;1884301;76;21187;-84
2022/06/02 03:49:34;;;;;;;14.70;8.35;;;32.90;99.90;;;;;;1888480;76;21610;-89
2022/06/02 03:52:07;;;;;;;13.53;8.38;;;32.90;99.90;;;;;;1884550;76;21188;-89
2022/06/02 03:54:43;;;;;;;13.68;8.80;;;33.30;97.60;;;;;;1856015;77;21153;-88
2022/06/02 03:57:15;;;;;;;16.00;8.28;;;33.10;97.70;;;;;;1859972;74;21281;-84
2022/06/02 03:59:48;;;;;;;14.58;8.00;;;33.10;98.20;;;;;;1877648;76;21159;-85
2022/06/02 04:02:22;;;;;;;13.32;7.95;;;33.20;99.90;;;;;;1854510;76;21142;-86
2022/06/02 04:04:55;;;;;;;14.25;8.40;;;33.20;99.90;;;;;;1881299;76;21643;-86
2022/06/02 04:07:32;;;;;;;11.25;8.30;;;33.30;99.90;;;;;;1884105;76;21095;-90
2022/06/02 04:10:05;;;;;;;13.03;8.80;;;33.00;99.90;;;;;;1883944;75;21149;-87
2022/06/02 04:15:13;;;;;;;9.90;7.72;;;33.00;99.90;;;;;;1889543;75;21127;-86
2022/06/02 04:17:47;;;;;;;11.60;8.05;;;33.20;99.90;;;;;;1887404;76;21137;-89
2022/06/02 04:22:55;;;;;;;15.45;8.10;;;33.40;99.90;;;;;;1887590;75;21625;-88
2022/06/02 04:25:29;;;;;;;13.55;8.28;;;33.20;99.90;;;;;;1886748;75;21152;-85
2022/06/02 04:28:03;;;;;;;13.48;8.50;;;33.50;99.90;;;;;;1880198;74;21112;-86
2022/06/02 04:30:37;;;;;;;15.75;8.90;;;33.30;99.90;;;;;;1886225;76;21193;-86
2022/06/02 04:33:10;;;;;;;15.13;9.15;;;33.70;99.90;;;;;;1885764;76;21546;-86
2022/06/02 04:35:47;;;;;;;13.62;8.68;;;33.50;99.90;;;;;;1886714;76;21150;-89
2022/06/02 04:38:20;;;;;;;16.02;8.35;;;33.80;99.90;;;;;;1883198;76;21108;-89
2022/06/02 04:40:54;;;;;;;13.48;7.95;;;33.60;99.90;;;;;;1869876;76;21663;-88
2022/06/02 04:43:28;;;;;;;16.87;9.78;;;33.50;99.90;;;;;;1866869;77;21093;-87
2022/06/02 04:46:02;;;;;;;15.60;8.85;;;33.70;99.90;;;;;;1863949;76;21571;-87
2022/06/02 04:48:36;;;;;;;14.07;8.70;;;33.50;99.90;;;;;;1875851;76;21110;-87
2022/06/02 04:51:10;;;;;;;15.72;9.08;;;33.40;99.90;;;;;;1866095;76;21169;-87
2022/06/02 04:53:43;;;;;;;15.58;9.55;;;33.60;99.90;;;;;;1866885;76;21132;-87
2022/06/02 04:56:17;;;;;;;13.72;8.75;;;33.40;99.90;;;;;;1867200;76;21102;-86
2022/06/02 04:58:52;;;;;;;13.38;9.13;;;33.50;99.90;;;;;;1882040;76;21110;-87
2022/06/02 05:01:26;;;;;;;17.87;10.10;;;33.80;99.90;;;;;;1866108;76;21192;-88
2022/06/02 05:04:01;;;;;;;15.50;8.90;;;33.80;99.90;;;;;;1868800;76;21177;-89
2022/06/02 05:06:35;;;;;;;13.18;9.15;;;33.50;99.90;;;;;;1866858;76;21157;-88
2022/06/02 05:09:20;;;;;;;15.08;9.50;;;33.40;99.90;;;;;;1886861;75;21212;-87
2022/06/02 05:12:10;;;;;;;14.13;9.30;;;33.70;99.90;;;;;;1817043;78;21303;-85
2022/06/02 05:14:48;;;;;;;19.15;10.30;;;33.30;99.90;;;;;;1844211;78;21174;-89
2022/06/02 05:17:26;;;;;;;14.45;9.30;;;33.40;99.90;;;;;;1846658;76;21147;-90
2022/06/02 05:19:56;;;;;;;16.15;9.60;;;33.40;99.90;;;;;;1870501;76;21574;-88
2022/06/02 05:22:30;;;;;;;16.30;9.90;;;33.70;99.90;;;;;;1858625;77;21168;-87
2022/06/02 05:25:03;;;;;;;15.35;10.20;;;33.80;99.90;;;;;;1859259;77;21177;-88
2022/06/02 05:27:36;;;;;;;13.58;8.73;;;33.90;99.90;;;;;;1879506;75;21091;-87
2022/06/02 05:30:10;;;;;;;13.90;9.15;;;33.90;99.90;;;;;;1883537;76;22122;-85
2022/06/02 05:32:43;;;;;;;17.25;9.70;;;33.60;99.90;;;;;;1882196;76;21162;-88
2022/06/02 05:35:16;;;;;;;18.27;9.15;;;33.70;99.90;;;;;;1916853;75;21125;-87
2022/06/02 05:37:50;;;;;;;14.78;10.08;;;33.60;99.90;;;;;;1866311;76;21214;-86
2022/06/02 05:40:23;;;;;;;14.93;10.40;;;34.00;99.90;;;;;;1851728;77;21093;-87
2022/06/02 05:42:56;;;;;;;15.00;10.13;;;33.80;99.90;;;;;;1815527;79;21220;-87
2022/06/02 05:45:30;;;;;;;15.43;10.20;;;33.90;99.90;;;;;;1877080;76;21083;-88
2022/06/02 05:48:03;;;;;;;14.47;9.65;;;34.00;99.90;;;;;;1848005;77;21107;-87
2022/06/02 05:50:38;;;;;;;16.85;10.75;;;33.90;99.90;;;;;;1906061;74;21092;-86
2022/06/02 05:53:11;;;;;;;15.18;10.40;;;33.90;99.90;;;;;;1859791;77;21124;-88
2022/06/02 05:55:46;;;;;;;16.77;10.75;;;33.80;99.90;;;;;;1870101;76;21132;-88
2022/06/02 05:58:25;;;;;;;14.78;10.28;;;34.00;99.90;;;;;;1886109;75;21149;-88
2022/06/02 06:01:02;;;;;;;18.27;9.85;;;33.80;99.90;;;;;;1890569;76;21137;-90
2022/06/02 06:03:36;;;;;;;19.45;10.35;;;34.00;99.90;;;;;;1889235;75;21263;-87
2022/06/02 06:06:09;;;;;;;17.23;10.88;;;34.00;99.90;;;;;;1897711;75;21134;-88
2022/06/02 06:08:43;;;;;;;;;;;33.80;99.90;;;;;;1898873;75;21530;-88
2022/06/02 06:11:17;;;;;;;16.12;9.73;;;33.80;99.90;;;;;;1888781;76;20197;-88
2022/06/02 06:13:51;;;;;;;15.85;9.65;;;33.80;99.90;;;;;;1879236;76;21154;-87
2022/06/02 06:16:28;;;;;;;13.50;9.13;;;33.60;99.90;;;;;;1851931;77;21099;-89
2022/06/02 06:19:02;;;;;;;16.10;8.93;;;33.50;99.90;;;;;;1844933;76;21138;-89
2022/06/02 06:21:50;;;;;;;19.35;10.10;;;33.30;99.90;;;;;;1869222;76;21142;-88
2022/06/02 06:24:23;;;;;;;16.02;9.48;;;33.10;99.90;;;;;;1876708;76;21241;-89
2022/06/02 06:26:57;;;;;;;17.82;10.35;;;33.20;99.90;;;;;;1882333;76;21033;-87
2022/06/02 06:29:35;;;;;;;18.87;10.37;;;33.00;99.90;;;;;;1881629;76;21465;-90
2022/06/02 06:32:22;;;;;;;14.60;9.60;;;33.40;99.90;;;;;;1879446;75;21121;-87
2022/06/02 06:35:00;;;;;;;14.07;9.38;;;33.40;99.90;;;;;;1874373;76;21197;-89
2022/06/02 06:37:33;;;;;;;14.25;9.15;;;33.00;99.90;;;;;;1883606;76;21110;-86
2022/06/02 06:40:08;;;;;;;18.23;9.25;;;33.00;99.90;;;;;;1888163;76;21214;-87
2022/06/02 06:42:42;;;;;;;14.78;8.88;;;33.00;99.90;;;;;;1871063;76;21683;-92
2022/06/02 06:45:17;;;;;;;16.97;9.45;;;33.10;99.90;;;;;;1847375;77;21158;-88
2022/06/02 06:48:00;;;;;;;19.32;9.53;;;33.00;99.90;;;;;;1875041;76;21119;-87
2022/06/02 06:50:39;;;;;;;11.48;9.05;;;33.00;99.90;;;;;;1804598;79;21649;-89
2022/06/02 06:53:12;;;;;;;17.02;8.93;;;33.40;99.90;;;;;;1790107;79;21244;-87
2022/06/02 06:55:47;;;;;;;12.80;9.85;;;33.40;99.90;;;;;;1820993;78;21258;-88
2022/06/02 06:58:23;;;;;;;18.85;9.00;;;33.40;99.90;;;;;;1789987;80;21349;-87
2022/06/02 07:00:59;;;;;;;17.32;8.50;;;33.50;99.90;;;;;;1785498;80;21130;-88
2022/06/02 07:03:35;;;;;;;16.80;8.53;;;33.40;99.90;;;;;;1768380;80;21085;-87
2022/06/02 07:06:10;;;;;;;14.90;8.88;;;33.50;99.90;;;;;;1764242;81;21203;-87
2022/06/02 07:08:54;;;;;;;16.30;7.85;;;33.50;99.90;;;;;;1808581;75;21173;-88
2022/06/02 07:14:06;;;;;;;12.90;8.63;;;33.50;99.90;;;;;;1836816;77;21167;-88
2022/06/02 07:16:40;;;;;;;13.88;8.13;;;33.80;99.90;;;;;;1865754;77;21189;-87
2022/06/02 07:19:18;;;;;;;14.58;8.15;;;33.70;99.90;;;;;;1866107;77;21245;-89
2022/06/02 07:21:51;;;;;;;16.20;8.58;;;33.80;99.90;;;;;;1862143;77;21182;-88
2022/06/02 07:24:24;;;;;;;14.83;9.93;;;33.70;99.90;;;;;;1835585;76;21213;-92
2022/06/02 07:27:00;;;;;;;21.12;9.35;;;33.70;99.90;;;;;;1860878;76;21129;-89
2022/06/02 07:29:34;;;;;;;17.95;8.93;;;34.00;99.90;;;;;;1863876;77;21800;-89
2022/06/02 07:32:16;;;;;;;16.05;8.68;;;33.90;99.70;;;;;;1864719;76;21153;-89
2022/06/02 07:34:47;;;;;;;;;;;34.10;99.40;;;;;;1863165;77;21209;-88
2022/06/02 07:37:23;;;;;;;13.90;8.33;;;34.20;99.90;;;;;;1862206;76;20216;-87
2022/06/02 07:39:57;;;;;;;21.62;10.50;;;33.90;99.30;;;;;;1853918;77;21135;-90
2022/06/02 07:42:37;;;;;;;16.05;9.63;;;33.80;99.90;;;;;;1857826;76;21147;-88
2022/06/02 07:45:16;;;;;;;16.62;8.78;;;34.20;99.90;;;;;;1869304;76;21244;-89
2022/06/02 07:47:50;;;;;;;13.93;8.08;;;34.00;98.90;;;;;;1873392;76;21178;-86
2022/06/02 07:50:23;;;;;;;15.55;8.35;;;33.90;99.80;;;;;;1842979;77;21216;-89
2022/06/02 07:52:56;;;;;;;14.93;7.53;;;34.00;99.60;;;;;;1839619;78;21169;-89
2022/06/02 07:55:30;;;;;;;18.73;8.33;;;33.90;99.60;;;;;;1840834;77;21111;-88
2022/06/02 07:58:04;;;;;;;13.83;8.63;;;34.10;99.90;;;;;;1842863;76;21141;-87
2022/06/02 08:00:38;;;;;;;15.30;8.60;;;34.00;99.90;;;;;;1871578;76;21597;-88
2022/06/02 08:03:13;;;;;;;16.12;7.72;;;34.10;99.80;;;;;;1878632;76;21138;-90
2022/06/02 08:05:46;;;;;;;19.57;8.65;;;34.10;98.90;;;;;;1877173;76;21153;-89
2022/06/02 08:08:22;;;;;;;19.95;9.15;;;34.10;98.50;;;;;;1877964;76;21151;-91
2022/06/02 08:10:56;;;;;;;17.42;8.08;;;34.30;98.30;;;;;;1878263;76;21114;-87
2022/06/02 08:13:32;;;;;;;18.20;8.13;;;34.30;98.00;;;;;;1882088;75;21122;-88
2022/06/02 08:16:06;;;;;;;17.10;8.20;;;34.20;98.10;;;;;;1868409;76;21165;-89
2022/06/02 08:18:39;;;;;;;16.45;10.43;;;34.20;98.50;;;;;;1882576;76;21133;-89
2022/06/02 08:21:16;;;;;;;15.75;9.13;;;34.00;99.30;;;;;;1886146;76;21130;-89
2022/06/02 08:23:47;;;;;;;14.13;8.73;;;33.80;99.00;;;;;;1869043;76;21146;-87
2022/06/02 08:26:21;;;;;;;13.93;8.60;;;33.80;98.90;;;;;;1869121;76;21079;-85
2022/06/02 08:28:58;;;;;;;16.77;8.23;;;34.10;98.80;;;;;;1876157;76;21629;-86
2022/06/02 08:31:29;;;;;;;13.53;7.42;;;34.00;97.90;;;;;;1873176;76;21166;-85
2022/06/02 08:34:20;;;;;;;13.20;8.43;;;33.80;98.00;;;;;;1888263;75;21130;-87
2022/06/02 08:36:46;;;;;;;15.30;7.75;;;33.80;98.60;;;;;;1830592;74;21112;-86
2022/06/02 08:39:19;;;;;;;14.35;7.90;;;33.90;99.20;;;;;;1878381;76;21195;-88
2022/06/02 08:42:06;;;;;;;13.90;7.92;;;34.00;99.10;;;;;;1873548;76;21137;-89
2022/06/02 08:44:39;;;;;;;13.13;8.10;;;33.80;98.90;;;;;;1849814;76;21155;-91
2022/06/02 08:47:15;;;;;;;17.82;8.53;;;33.90;99.50;;;;;;1856589;76;21201;-88
2022/06/02 08:49:54;;;;;;;14.30;8.48;;;33.80;99.20;;;;;;1852463;76;21174;-87
2022/06/02 08:52:28;;;;;;;11.75;8.70;;;33.90;99.30;;;;;;1893997;75;21122;-90
2022/06/02 08:55:12;;;;;;;13.70;7.90;;;33.80;98.70;;;;;;1861315;76;21196;-90
2022/06/02 08:57:47;;;;;;;13.28;7.78;;;34.00;98.70;;;;;;1872200;76;21165;-82
2022/06/02 09:00:22;;;;;;;12.47;7.72;;;33.80;98.80;;;;;;1869181;76;21272;-77
2022/06/02 09:02:57;;;;;;;13.05;8.53;;;34.10;98.90;;;;;;1872894;76;21754;-79
2022/06/02 09:05:54;;;;;;;18.45;7.70;;;34.10;99.30;;;;;;1873201;76;21238;-78
2022/06/02 09:08:27;;;;;;;13.62;7.80;;;33.80;99.20;;;;;;1739801;82;21193;-78
2022/06/02 09:11:00;;;;;;;13.13;7.62;;;34.10;98.90;;;;;;1701381;83;21260;-78
2022/06/02 09:13:34;;;;;;;15.30;8.15;;;33.90;99.00;;;;;;1733029;81;21814;-77
2022/06/02 09:16:28;;;;;;;;;;;33.90;99.10;;;;;;1750771;81;21265;-78
2022/06/02 09:19:03;;;;;;;14.65;7.58;;;33.70;98.90;;;;;;1670370;84;20210;-78
2022/06/02 09:21:38;;;;;;;15.88;7.87;;;33.60;98.90;;;;;;1665439;85;21190;-80
2022/06/02 09:24:17;;;;;;;13.72;8.13;;;33.70;99.00;;;;;;1696850;83;21298;-78
2022/06/02 09:26:51;;;;;;;18.05;8.40;;;33.50;99.10;;;;;;1730304;81;21165;-78
2022/06/02 09:29:25;;;;;;;13.88;7.90;;;33.50;99.60;;;;;;1700822;82;21820;-78
2022/06/02 09:31:58;;;;;;;12.35;7.30;;;33.80;99.90;;;;;;1749013;81;21192;-78
2022/06/02 09:34:33;;;;;;;15.85;8.23;;;33.40;99.60;;;;;;1739489;82;21225;-78
2022/06/02 09:37:06;;;;;;;16.67;8.13;;;33.30;99.70;;;;;;1740072;82;21143;-78
2022/06/02 09:39:40;;;;;;;15.08;8.75;;;33.50;99.80;;;;;;1740587;82;21146;-77
2022/06/02 09:42:13;;;;;;;17.02;9.90;;;33.20;99.90;;;;;;1733202;81;21677;-78
2022/06/02 09:44:46;;;;;;;16.67;10.25;;;33.30;99.90;;;;;;1734281;81;21701;-76
2022/06/02 09:47:19;;;;;;;20.55;10.28;;;33.00;99.90;;;;;;1738392;80;21179;-77
2022/06/02 09:49:53;;;;;;;22.35;10.20;;;33.10;99.90;;;;;;1743295;80;21184;-79
2022/06/02 09:52:26;;;;;;;20.27;10.50;;;32.40;99.90;;;;;;1744400;80;21197;-77
2022/06/02 09:55:00;;;;;;;20.75;9.75;;;32.10;99.90;;;;;;1748538;79;21139;-78
2022/06/02 10:00:11;;;;;;;16.80;9.25;;;31.80;99.90;;;;;;1741629;78;21148;-79
2022/06/02 10:02:42;;;;;;;15.55;7.70;;;31.90;99.90;;;;;;1740132;81;21164;-76
2022/06/02 10:05:18;;;;;;;17.75;8.83;;;31.50;99.90;;;;;;1735861;81;21147;-77
2022/06/02 10:07:50;;;;;;;21.00;9.18;;;31.20;99.90;;;;;;1770520;78;21244;-75
2022/06/02 10:10:24;;;;;;;18.60;8.13;;;31.10;99.90;;;;;;1796662;78;21177;-80
2022/06/02 10:12:58;;;;;;;14.63;7.95;;;31.20;99.90;;;;;;1765325;80;21122;-78
2022/06/02 10:15:31;;;;;;;14.50;8.35;;;30.90;99.90;;;;;;1792103;78;21240;-77
2022/06/02 10:18:04;;;;;;;12.93;7.62;;;30.90;99.90;;;;;;1790475;78;21323;-79
2022/06/02 10:20:38;;;;;;;13.00;8.00;;;30.80;99.90;;;;;;1792639;79;21185;-80
2022/06/02 10:23:11;;;;;;;19.25;9.83;;;31.00;99.90;;;;;;1791876;78;21090;-79
2022/06/02 10:25:47;;;;;;;22.25;9.50;;;30.90;99.90;;;;;;1792549;78;21232;-78
2022/06/02 10:28:20;;;;;;;14.18;9.30;;;30.90;99.90;;;;;;1755982;80;21476;-76
2022/06/02 10:30:54;;;;;;;21.02;11.75;;;31.00;99.90;;;;;;1717539;82;21231;-78
2022/06/02 10:33:28;;;;;;;22.20;11.83;;;30.90;99.90;;;;;;1749860;81;21173;-79
2022/06/02 10:36:03;;;;;;;21.45;10.82;;;31.20;99.90;;;;;;1772480;80;21148;-79
2022/06/02 10:38:36;;;;;;;20.20;10.90;;;31.10;99.90;;;;;;1769589;80;21161;-77
2022/06/02 10:41:10;;;;;;;16.52;10.35;;;31.20;99.90;;;;;;1733442;80;21164;-76
2022/06/02 10:43:44;;;;;;;21.97;10.75;;;31.20;99.90;;;;;;1800075;78;21696;-75
2022/06/02 10:46:17;;;;;;;19.20;10.55;;;31.20;99.90;;;;;;1800420;78;21200;-77
2022/06/02 10:48:51;;;;;;;24.72;10.58;;;31.30;99.90;;;;;;1807694;78;21546;-76
2022/06/02 10:51:24;;;;;;;23.15;11.20;;;31.30;99.90;;;;;;1798034;78;21583;-76
2022/06/02 10:53:58;;;;;;;17.65;10.75;;;31.50;99.90;;;;;;1756289;80;21841;-77
2022/06/02 10:56:31;;;;;;;19.75;10.53;;;31.30;99.90;;;;;;1758640;80;21163;-76
2022/06/02 10:59:05;;;;;;;20.05;10.80;;;31.50;99.90;;;;;;1746203;82;21701;-76
2022/06/02 11:01:38;;;;;;;23.90;10.55;;;31.40;99.90;;;;;;1721779;82;21217;-77
2022/06/02 11:04:13;;;;;;;19.23;11.48;;;31.40;99.90;;;;;;1749781;80;21480;-75
2022/06/02 11:06:46;;;;;;;21.62;11.20;;;31.40;99.90;;;;;;1761894;81;22498;-76
2022/06/02 11:09:20;;;;;;;23.55;12.00;;;31.30;99.90;;;;;;1766154;80;21211;-75
2022/06/02 11:11:53;;;;;;;20.60;12.23;;;31.40;99.90;;;;;;1743082;81;21632;-77
2022/06/02 11:14:31;;;;;;;20.65;12.20;;;31.20;99.90;;;;;;1750953;80;21170;-81
2022/06/02 11:17:06;;;;;;;19.17;10.25;;;31.20;99.90;;;;;;1730061;82;21251;-90
2022/06/02 11:19:41;;;;;;;18.80;9.88;;;31.30;99.90;;;;;;1783255;80;21148;-91
2022/06/02 11:22:14;;;;;;;13.68;8.18;;;31.20;99.90;;;;;;1768924;80;21138;-91
2022/06/02 11:24:51;;;;;;;11.05;7.42;;;31.10;99.90;;;;;;1762601;80;21154;-91
2022/06/02 11:27:24;;;;;;;16.32;8.45;;;31.00;99.90;;;;;;1736605;82;21217;-92
2022/06/02 11:30:14;;;;;;;16.32;8.83;;;30.90;99.90;;;;;;1763857;81;21204;-92
2022/06/02 11:32:36;;;;;;;20.35;10.80;;;30.80;99.90;;;;;;1753195;81;21099;-91
2022/06/02 11:35:12;;;;;;;18.55;11.05;;;30.80;99.90;;;;;;1773823;80;21192;-90
2022/06/02 11:37:45;;;;;;;20.20;12.53;;;30.60;99.90;;;;;;1780453;79;21157;-90
2022/06/02 11:40:20;;;;;;;17.60;11.10;;;30.60;99.90;;;;;;1746473;81;21117;-91
2022/06/02 11:42:54;;;;;;;19.02;10.78;;;30.80;99.90;;;;;;1770541;78;21224;-89
2022/06/02 11:45:27;;;;;;;21.50;11.53;;;30.80;99.90;;;;;;1770209;79;21220;-90
2022/06/02 11:48:00;;;;;;;18.77;11.57;;;30.80;99.90;;;;;;1768814;80;21099;-89
2022/06/02 11:50:37;;;;;;;20.85;11.38;;;30.50;99.90;;;;;;1768529;80;21148;-90
2022/06/02 11:53:10;;;;;;;19.92;11.35;;;30.60;99.90;;;;;;1745422;81;21113;-88
2022/06/02 11:55:44;;;;;;;16.57;11.25;;;30.40;99.90;;;;;;1773913;79;21675;-89
2022/06/02 11:58:18;;;;;;;17.00;9.48;;;30.60;99.90;;;;;;1771756;80;21252;-88
2022/06/02 12:00:52;;;;;;;17.67;9.83;;;30.30;99.90;;;;;;1775290;80;21138;-91
2022/06/02 12:03:26;;;;;;;17.70;9.80;;;30.50;99.90;;;;;;1764497;79;21768;-90
2022/06/02 12:05:59;;;;;;;17.45;9.33;;;30.30;99.90;;;;;;1766893;80;21456;-89
2022/06/02 12:08:36;;;;;;;21.10;9.10;;;30.40;99.90;;;;;;1766883;80;21198;-90
2022/06/02 12:11:10;;;;;;;15.65;8.70;;;30.10;99.90;;;;;;1766883;81;21217;-89
2022/06/02 12:13:47;;;;;;;13.68;8.43;;;30.10;99.90;;;;;;1763671;80;21172;-89
2022/06/02 12:16:24;;;;;;;15.23;7.80;;;30.10;99.90;;;;;;1803862;79;21234;-89
2022/06/02 12:19:09;;;;;;;;;;;;;;;;;;;;;
2022/06/02 12:21:39;;;;;;;12.53;7.92;;;30.20;99.90;;;;;;1759087;81;21150;-89
2022/06/02 12:24:17;;;;;;;14.05;7.47;;;30.00;99.90;;;;;;1752917;81;21223;-90
2022/06/02 12:27:17;;;;;;;11.88;7.25;;;29.90;99.90;;;;;;1743531;81;21258;-90
2022/06/02 12:30:08;;;;;;;13.88;6.87;;;29.90;99.90;;;;;;1740091;81;21196;-89
2022/06/02 12:33:02;;;;;;;9.05;6.83;;;30.10;99.90;;;;;;1745909;81;21182;-91
2022/06/02 12:35:57;;;;;;;12.07;6.90;;;29.90;99.90;;;;;;1699578;82;21243;-88
2022/06/02 12:38:30;;;;;;;11.63;7.60;;;30.10;99.90;;;;;;1738352;82;21130;-89
2022/06/02 12:41:06;;;;;;;16.85;7.97;;;29.80;99.90;;;;;;1712393;82;21236;-91
2022/06/02 12:43:41;;;;;;;11.93;7.85;;;30.00;99.90;;;;;;1741049;81;21146;-87
2022/06/02 12:46:15;;;;;;;14.50;8.45;;;29.90;99.90;;;;;;1742011;81;22474;-91
2022/06/02 12:48:49;;;;;;;15.15;9.35;;;29.80;99.90;;;;;;1733370;82;21213;-91
2022/06/02 12:51:27;;;;;;;14.40;8.95;;;29.90;99.90;;;;;;1760525;81;21170;-89
2022/06/02 12:54:00;;;;;;;17.00;9.88;;;30.00;99.90;;;;;;1738231;81;21219;-87
2022/06/02 12:56:34;;;;;;;15.60;9.35;;;29.90;99.90;;;;;;1726776;83;21338;-88
2022/06/02 12:59:11;;;;;;;17.37;9.03;;;29.70;99.90;;;;;;1726390;83;21182;-90
2022/06/02 13:01:49;;;;;;;16.07;8.80;;;29.80;99.90;;;;;;1727750;83;21275;-88
2022/06/02 13:04:23;;;;;;;20.70;9.20;;;29.70;99.90;;;;;;1725739;82;21404;-90
2022/06/02 13:06:56;;;;;;;15.43;9.30;;;29.60;99.90;;;;;;1719602;81;21342;-89
2022/06/02 13:09:30;;;;;;;13.48;8.40;;;29.60;99.90;;;;;;1733744;81;21231;-87
2022/06/02 13:12:03;;;;;;;11.15;8.03;;;29.60;99.90;;;;;;1739871;81;21150;-87
2022/06/02 13:14:37;;;;;;;13.03;7.33;;;29.60;99.90;;;;;;1735115;81;21562;-86
2022/06/02 13:17:10;;;;;;;11.15;6.58;;;29.80;99.90;;;;;;1735831;81;21844;-90
2022/06/02 13:19:46;;;;;;;13.28;6.83;;;29.50;99.90;;;;;;1696643;83;21247;-90
2022/06/02 13:22:19;;;;;;;13.43;6.83;;;29.70;99.90;;;;;;1677596;84;21259;-89
2022/06/02 13:24:55;;;;;;;13.75;7.12;;;29.70;99.90;;;;;;1758097;80;21155;-89
2022/06/02 13:27:30;;;;;;;11.53;7.28;;;29.60;99.90;;;;;;1724017;83;21106;-92
2022/06/02 13:30:05;;;;;;;15.75;8.98;;;29.70;99.90;;;;;;1753050;81;21194;-92